This is the latest recevied weather packets stored in our database for station/object K0NV. If no packets are shown the sender has not sent any weather packets the latest 1 day(s).
| Time | Temp. | Humidity | Pressure | Rain* | Wind** | Luminosity | Snow |
|---|---|---|---|---|---|---|---|
| 1778012453 | 8.89° C | 96% | 1010.4 hPa | 0 mm | 0 m/s | 54 W/m² | - |
| 1778012150 | 8.89° C | 98% | 1010 hPa | 0 mm | 1.34 m/s, 32° | 69 W/m² | - |
| 1778011848 | 8.89° C | 99% | 1010.1 hPa | 0 mm | 1.79 m/s, 41° | 75 W/m² | - |
| 1778011545 | 8.89° C | 99% | 1009.8 hPa | 0 mm | 0 m/s | 87 W/m² | - |
| 1778011242 | 9.44° C | 99% | 1009.5 hPa | 0 mm | 0.45 m/s, 72° | 69 W/m² | - |
| 1778010938 | 9.44° C | 99% | 1009.5 hPa | 0 mm | 1.34 m/s, 19° | 77 W/m² | - |
| 1778010636 | 9.44° C | 99% | 1009.6 hPa | 0 mm | 1.79 m/s, 33° | 65 W/m² | - |
| 1778010333 | 10° C | 98% | 1009.8 hPa | 0 mm | 0 m/s | 80 W/m² | - |
| 1778010028 | 10° C | 98% | 1009.8 hPa | 0 mm | 0 m/s | 59 W/m² | - |
| 1778009726 | 10° C | 97% | 1010.1 hPa | 0 mm | 0 m/s | 42 W/m² | - |
| 1778009423 | 10° C | 97% | 1009.9 hPa | 0 mm | 0 m/s | 86 W/m² | - |
| 1778009121 | 10.56° C | 96% | 1009.9 hPa | 0 mm | 0.45 m/s, 296° | 92 W/m² | - |
| 1778008818 | 10.56° C | 95% | 1010.1 hPa | 0 mm | 0 m/s | 57 W/m² | - |
| 1778008517 | 10.56° C | 94% | 1010.2 hPa | 0 mm | 0 m/s | 46 W/m² | - |
| 1778008214 | 10.56° C | 94% | 1010.1 hPa | 0 mm | 2.68 m/s, 33° | 54 W/m² | - |
| 1778007909 | 10.56° C | 94% | 1009.7 hPa | 0 mm | 0.89 m/s, 29° | 72 W/m² | - |
| 1778007605 | 10.56° C | 93% | 1009.6 hPa | 0 mm | 3.13 m/s, 31° | 101 W/m² | - |
| 1778007302 | 10.56° C | 92% | 1009.6 hPa | 0 mm | 3.58 m/s, 16° | 104 W/m² | - |
| 1778006998 | 11.11° C | 90% | 1009.5 hPa | 0 mm | 2.68 m/s, 48° | 98 W/m² | - |
| 1778006695 | 11.11° C | 89% | 1009.5 hPa | 0 mm | 0.89 m/s, 38° | 104 W/m² | - |
| 1778006391 | 11.11° C | 89% | 1009.7 hPa | 0 mm | 0.45 m/s, 55° | 78 W/m² | - |
| 1778006089 | 11.67° C | 88% | 1009.5 hPa | 0 mm | 2.68 m/s, 19° | 66 W/m² | - |
| 1778005785 | 11.67° C | 88% | 1009.7 hPa | 0 mm | 2.24 m/s, 328° | 85 W/m² | - |
| 1778005482 | 11.67° C | 88% | 1009.8 hPa | 0 mm | 0 m/s | 55 W/m² | - |
| 1778005178 | 11.67° C | 88% | 1009.4 hPa | 0 mm | 2.68 m/s, 46° | 65 W/m² | - |
* Rain latest hour (hover to see other rain measurements)
** Current wind speed in m/s (hover to see current wind gust speed)